Details From OMDB - Dubai Intl
To VTSP - Phuket Intl
Flight Number -
Tags Generated
Created
Modified
Stats Distance 2,662 nm / 4,929 km
Max Altitude 0 ft / 0 m
Waypoints 4
Social Downloads 6
Likes 0
Share VATSIM

Download

Looking for another format? Having issues loading an existing format? Contact us
Advertisement - Login to hide

Notes

Generated

Route

OMDB MIXOL PUT11 VTSP

ID Type Via Altitude Latitude Longitude Leg Dist Tot Dist Heading (true) Name
O OMDB APT - 0 ft / 0 m 25.26213˚ 55.34757˚ - 0 nm - -
MIXOL FIX - 0 ft / 0 m 24.08972˚ 59.49972˚ 237 nm 237 nm 106° / 108° -
PUT11 FIX - 0 ft / 0 m 8.20456˚ 98.14449˚ 2413 nm 2650 nm 107° / 118° -
O VTSP APT - 0 ft / 0 m 8.11189˚ 98.30327˚ 10 nm 2661 nm 121° / 121° -

Altitude Profile

Advertisement - Login to hide

Weather


0- 5 10 15 20 25 30 35+ Temperature / ° C

Clouds and Precipitation
Forecast for 2018-05-27 12:00 UTC. Updated an hour ago

Ground ~20,000 ft ~40,000 ft Winds

OMDB

Details ICAO OMDB (DXB)
Name DUBAI INTL
Region United Arab Emirates
Timezone Asia/Dubai (UTC+4.0)
Stats Elevation 62 ft / 19 m (AMSL)
Location 25.254912° 55.364260°
Runways 2
Magnetic Variation 2.068° E

METAR

OMDB 271200Z 30015KT CAVOK 36/21 Q1005 NOSIG

Decode

TAF

TAF OMDB 271054Z 2712/2818 32015KT 8000 NSC PROB30 TEMPO 2712/2714 VRB15G25KT 3000 BLDU FEW040TCU BECMG 2716/2718 05005KT BECMG 2803/2805 19012KT BECMG 2808/2810 29014KT BECMG 2816/2818 01005KT

Decode

Departure Runways

ID Width Length Bearing (true) Bearing (mag) Surface Threshold Offset Overrun Length
12L 197 ft / 60 m 13,124 ft / 4,000 m 121.49° 119.42° Asphalt 1,312 ft / 400 m 395 ft / 120 m
12R 151 ft / 46 m 13,139 ft / 4,005 m 121.48° 119.41° Asphalt 394 ft / 120 m 197 ft / 60 m
30L 151 ft / 46 m 13,139 ft / 4,005 m 301.50° 299.43° Asphalt 2,953 ft / 900 m 197 ft / 60 m
30R 197 ft / 60 m 13,124 ft / 4,000 m 301.51° 299.44° Asphalt 0 ft / 0 m 395 ft / 120 m

VTSP

Details ICAO VTSP (HKT)
Name Phuket Intl
Region Thailand
Timezone Asia/Bangkok (UTC+7.0)
Stats Elevation 82 ft / 25 m (AMSL)
Location 8.113199° 98.316871°
Runways 1
Magnetic Variation 0.423° W

METAR

VTSP 271230Z VRB01KT 9000 FEW018 BKN100 27/24 Q1010 NOSIG

Decode

TAF

TAF VTSP 271100Z 2712/2818 VRB02KT 8000 FEW020 SCT100 BECMG 2804/2806 28008KT 9999 TEMPO 2806/2810 VRB10G20KT 5000 TSRA FEW018CB SCT020 BKN100 BECMG 2810/2812 VRB02KT 8000

Decode

Destination Runways

ID Width Length Bearing (true) Bearing (mag) Surface Threshold Offset Overrun Length
09 148 ft / 45 m 9,870 ft / 3,008 m 84.45° 84.87° Asphalt 0 ft / 0 m 197 ft / 60 m
27 148 ft / 45 m 9,870 ft / 3,008 m 264.46° 264.88° Asphalt 0 ft / 0 m 197 ft / 60 m

Approach Navaids

Runway Type Ident Frequency Range Bearing (true) Bearing (mag) Slope Elevation
27 Localiser IPKT 109.90 MHz 18 nm / 33 km 263.45° 263.88° - 19 ft / 6 m (AMSL)
27 Glidescope IPKT 109.90 MHz 10 nm / 19 km 263.45° 263.88° 3.20° 82 ft / 25 m (AMSL)
27 DME IPKT 109.90 MHz 18 nm / 33 km - - - 82 ft / 25 m (AMSL)

Popular Alternatives